sensor_id;sensor_type;location;lat;lon;timestamp;P1;durP1;ratioP1;P2;durP2;ratioP2
21297;SDS011;10808;48.010;11.326;2022-07-29T00:00:49;1.98;;;1.80;;
21297;SDS011;10808;48.010;11.326;2022-07-29T00:03:15;2.65;;;2.00;;
21297;SDS011;10808;48.010;11.326;2022-07-29T00:05:41;2.80;;;2.00;;
21297;SDS011;10808;48.010;11.326;2022-07-29T00:08:08;2.55;;;1.92;;
21297;SDS011;10808;48.010;11.326;2022-07-29T00:10:34;3.58;;;1.90;;
21297;SDS011;10808;48.010;11.326;2022-07-29T00:13:01;2.25;;;1.80;;
21297;SDS011;10808;48.010;11.326;2022-07-29T00:15:27;1.50;;;1.40;;
21297;SDS011;10808;48.010;11.326;2022-07-29T00:17:53;3.20;;;1.80;;
21297;SDS011;10808;48.010;11.326;2022-07-29T00:20:19;2.28;;;1.90;;
21297;SDS011;10808;48.010;11.326;2022-07-29T00:22:47;1.95;;;1.60;;
21297;SDS011;10808;48.010;11.326;2022-07-29T00:25:13;2.33;;;1.83;;
21297;SDS011;10808;48.010;11.326;2022-07-29T00:27:39;1.95;;;1.77;;
21297;SDS011;10808;48.010;11.326;2022-07-29T00:30:06;1.90;;;1.70;;
21297;SDS011;10808;48.010;11.326;2022-07-29T00:32:32;1.90;;;1.80;;
21297;SDS011;10808;48.010;11.326;2022-07-29T00:34:59;1.80;;;1.70;;
21297;SDS011;10808;48.010;11.326;2022-07-29T00:37:44;1.80;;;1.70;;
21297;SDS011;10808;48.010;11.326;2022-07-29T00:40:10;1.80;;;1.70;;
21297;SDS011;10808;48.010;11.326;2022-07-29T00:42:43;1.88;;;1.65;;
21297;SDS011;10808;48.010;11.326;2022-07-29T00:45:12;1.83;;;1.70;;
21297;SDS011;10808;48.010;11.326;2022-07-29T00:47:39;2.55;;;2.00;;
21297;SDS011;10808;48.010;11.326;2022-07-29T00:50:05;2.83;;;1.80;;
21297;SDS011;10808;48.010;11.326;2022-07-29T00:52:34;2.10;;;1.90;;
21297;SDS011;10808;48.010;11.326;2022-07-29T00:55:03;2.00;;;1.80;;
21297;SDS011;10808;48.010;11.326;2022-07-29T00:57:30;2.05;;;1.70;;
21297;SDS011;10808;48.010;11.326;2022-07-29T00:59:56;2.05;;;1.70;;
21297;SDS011;10808;48.010;11.326;2022-07-29T01:02:22;3.58;;;1.60;;
21297;SDS011;10808;48.010;11.326;2022-07-29T01:04:49;1.88;;;1.67;;
21297;SDS011;10808;48.010;11.326;2022-07-29T01:07:15;2.35;;;1.60;;
21297;SDS011;10808;48.010;11.326;2022-07-29T01:09:42;1.95;;;1.80;;
21297;SDS011;10808;48.010;11.326;2022-07-29T01:12:09;1.90;;;1.60;;
21297;SDS011;10808;48.010;11.326;2022-07-29T01:14:36;2.47;;;1.55;;
21297;SDS011;10808;48.010;11.326;2022-07-29T01:17:09;1.98;;;1.88;;
21297;SDS011;10808;48.010;11.326;2022-07-29T01:19:51;2.60;;;1.80;;
21297;SDS011;10808;48.010;11.326;2022-07-29T01:28:01;2.05;;;1.60;;
21297;SDS011;10808;48.010;11.326;2022-07-29T01:30:47;2.40;;;1.60;;
21297;SDS011;10808;48.010;11.326;2022-07-29T01:33:17;2.95;;;1.98;;
21297;SDS011;10808;48.010;11.326;2022-07-29T01:36:05;1.85;;;1.75;;
21297;SDS011;10808;48.010;11.326;2022-07-29T01:38:36;2.38;;;1.60;;
21297;SDS011;10808;48.010;11.326;2022-07-29T01:41:05;1.90;;;1.70;;
21297;SDS011;10808;48.010;11.326;2022-07-29T01:43:49;2.22;;;1.58;;
21297;SDS011;10808;48.010;11.326;2022-07-29T01:46:19;1.55;;;1.45;;
21297;SDS011;10808;48.010;11.326;2022-07-29T01:49:10;1.60;;;1.50;;
21297;SDS011;10808;48.010;11.326;2022-07-29T01:51:53;1.80;;;1.50;;
21297;SDS011;10808;48.010;11.326;2022-07-29T01:54:28;1.95;;;1.40;;
21297;SDS011;10808;48.010;11.326;2022-07-29T01:57:00;1.60;;;1.50;;
21297;SDS011;10808;48.010;11.326;2022-07-29T01:59:29;2.20;;;1.40;;
21297;SDS011;10808;48.010;11.326;2022-07-29T02:01:57;1.77;;;1.50;;
21297;SDS011;10808;48.010;11.326;2022-07-29T02:04:24;1.48;;;1.38;;
21297;SDS011;10808;48.010;11.326;2022-07-29T02:06:52;1.40;;;1.30;;
21297;SDS011;10808;48.010;11.326;2022-07-29T02:09:20;1.73;;;1.42;;
21297;SDS011;10808;48.010;11.326;2022-07-29T02:11:49;1.90;;;1.42;;
21297;SDS011;10808;48.010;11.326;2022-07-29T02:14:20;1.42;;;1.33;;
21297;SDS011;10808;48.010;11.326;2022-07-29T02:16:48;1.55;;;1.45;;
21297;SDS011;10808;48.010;11.326;2022-07-29T02:19:19;3.35;;;1.80;;
21297;SDS011;10808;48.010;11.326;2022-07-29T02:21:48;1.70;;;1.40;;
21297;SDS011;10808;48.010;11.326;2022-07-29T02:24:15;2.35;;;1.42;;
21297;SDS011;10808;48.010;11.326;2022-07-29T02:26:43;2.00;;;1.50;;
21297;SDS011;10808;48.010;11.326;2022-07-29T02:29:11;2.53;;;1.33;;
21297;SDS011;10808;48.010;11.326;2022-07-29T02:31:40;1.38;;;1.27;;
21297;SDS011;10808;48.010;11.326;2022-07-29T02:34:08;1.92;;;1.25;;
21297;SDS011;10808;48.010;11.326;2022-07-29T02:36:37;2.60;;;1.48;;
21297;SDS011;10808;48.010;11.326;2022-07-29T02:39:04;1.80;;;1.38;;
21297;SDS011;10808;48.010;11.326;2022-07-29T02:41:47;1.55;;;1.35;;
21297;SDS011;10808;48.010;11.326;2022-07-29T02:44:16;2.80;;;1.40;;
21297;SDS011;10808;48.010;11.326;2022-07-29T02:52:04;2.45;;;1.30;;
21297;SDS011;10808;48.010;11.326;2022-07-29T02:54:42;1.52;;;1.40;;
21297;SDS011;10808;48.010;11.326;2022-07-29T02:57:14;1.88;;;1.35;;
21297;SDS011;10808;48.010;11.326;2022-07-29T02:59:48;2.13;;;1.20;;
21297;SDS011;10808;48.010;11.326;2022-07-29T03:02:16;1.50;;;1.20;;
21297;SDS011;10808;48.010;11.326;2022-07-29T03:04:43;1.30;;;1.20;;
21297;SDS011;10808;48.010;11.326;2022-07-29T03:07:13;2.28;;;1.20;;
21297;SDS011;10808;48.010;11.326;2022-07-29T03:09:43;1.55;;;1.23;;
21297;SDS011;10808;48.010;11.326;2022-07-29T03:12:10;1.50;;;1.20;;
21297;SDS011;10808;48.010;11.326;2022-07-29T03:14:37;3.53;;;1.50;;
21297;SDS011;10808;48.010;11.326;2022-07-29T03:17:04;1.95;;;1.10;;
21297;SDS011;10808;48.010;11.326;2022-07-29T03:19:31;1.80;;;1.33;;
21297;SDS011;10808;48.010;11.326;2022-07-29T03:21:57;1.92;;;1.70;;
21297;SDS011;10808;48.010;11.326;2022-07-29T03:24:27;1.43;;;1.33;;
21297;SDS011;10808;48.010;11.326;2022-07-29T03:26:55;1.58;;;1.30;;
21297;SDS011;10808;48.010;11.326;2022-07-29T03:29:22;2.25;;;1.40;;
21297;SDS011;10808;48.010;11.326;2022-07-29T03:31:48;1.30;;;1.20;;
21297;SDS011;10808;48.010;11.326;2022-07-29T03:34:14;1.67;;;1.38;;
21297;SDS011;10808;48.010;11.326;2022-07-29T03:36:40;1.90;;;1.27;;
21297;SDS011;10808;48.010;11.326;2022-07-29T03:39:06;1.92;;;1.42;;
21297;SDS011;10808;48.010;11.326;2022-07-29T03:41:35;2.50;;;1.35;;
21297;SDS011;10808;48.010;11.326;2022-07-29T03:44:03;1.65;;;1.38;;
21297;SDS011;10808;48.010;11.326;2022-07-29T03:46:32;1.58;;;1.48;;
21297;SDS011;10808;48.010;11.326;2022-07-29T03:49:01;1.77;;;1.35;;
21297;SDS011;10808;48.010;11.326;2022-07-29T03:51:29;1.60;;;1.25;;
21297;SDS011;10808;48.010;11.326;2022-07-29T03:53:56;2.63;;;1.30;;
21297;SDS011;10808;48.010;11.326;2022-07-29T03:56:22;2.63;;;1.25;;
21297;SDS011;10808;48.010;11.326;2022-07-29T03:58:50;1.37;;;1.27;;
21297;SDS011;10808;48.010;11.326;2022-07-29T04:01:18;2.83;;;1.37;;
21297;SDS011;10808;48.010;11.326;2022-07-29T04:03:45;2.75;;;1.35;;
21297;SDS011;10808;48.010;11.326;2022-07-29T04:06:11;4.10;;;1.30;;
21297;SDS011;10808;48.010;11.326;2022-07-29T04:08:37;1.50;;;1.20;;
21297;SDS011;10808;48.010;11.326;2022-07-29T04:11:04;1.52;;;1.30;;
21297;SDS011;10808;48.010;11.326;2022-07-29T04:13:31;2.00;;;1.42;;
21297;SDS011;10808;48.010;11.326;2022-07-29T04:15:58;1.60;;;1.50;;
21297;SDS011;10808;48.010;11.326;2022-07-29T04:18:24;2.42;;;1.33;;
21297;SDS011;10808;48.010;11.326;2022-07-29T04:20:51;1.45;;;1.35;;
21297;SDS011;10808;48.010;11.326;2022-07-29T04:23:17;2.40;;;1.50;;
21297;SDS011;10808;48.010;11.326;2022-07-29T04:25:43;2.90;;;1.52;;
21297;SDS011;10808;48.010;11.326;2022-07-29T04:28:09;2.20;;;1.63;;
21297;SDS011;10808;48.010;11.326;2022-07-29T04:30:36;2.38;;;1.55;;
21297;SDS011;10808;48.010;11.326;2022-07-29T04:33:03;4.18;;;1.58;;
21297;SDS011;10808;48.010;11.326;2022-07-29T04:35:36;6.13;;;1.70;;
21297;SDS011;10808;48.010;11.326;2022-07-29T04:38:03;3.03;;;1.83;;
21297;SDS011;10808;48.010;11.326;2022-07-29T04:40:31;2.75;;;1.73;;
21297;SDS011;10808;48.010;11.326;2022-07-29T04:42:59;2.60;;;1.70;;
21297;SDS011;10808;48.010;11.326;2022-07-29T04:45:26;4.30;;;2.83;;
21297;SDS011;10808;48.010;11.326;2022-07-29T04:47:53;4.70;;;3.70;;
21297;SDS011;10808;48.010;11.326;2022-07-29T04:50:19;3.87;;;3.00;;
21297;SDS011;10808;48.010;11.326;2022-07-29T04:52:45;4.50;;;2.10;;
21297;SDS011;10808;48.010;11.326;2022-07-29T04:55:11;3.55;;;2.13;;
21297;SDS011;10808;48.010;11.326;2022-07-29T04:57:37;4.40;;;1.70;;
21297;SDS011;10808;48.010;11.326;2022-07-29T05:00:04;4.90;;;2.10;;
21297;SDS011;10808;48.010;11.326;2022-07-29T05:02:30;1.98;;;1.50;;
21297;SDS011;10808;48.010;11.326;2022-07-29T05:04:56;2.30;;;1.50;;
21297;SDS011;10808;48.010;11.326;2022-07-29T05:07:22;2.28;;;1.65;;
21297;SDS011;10808;48.010;11.326;2022-07-29T05:09:48;1.75;;;1.65;;
21297;SDS011;10808;48.010;11.326;2022-07-29T05:12:15;2.80;;;1.70;;
21297;SDS011;10808;48.010;11.326;2022-07-29T05:14:41;1.80;;;1.60;;
21297;SDS011;10808;48.010;11.326;2022-07-29T05:17:07;2.85;;;1.83;;
21297;SDS011;10808;48.010;11.326;2022-07-29T05:19:33;1.70;;;1.60;;
21297;SDS011;10808;48.010;11.326;2022-07-29T05:21:59;2.45;;;1.60;;
21297;SDS011;10808;48.010;11.326;2022-07-29T05:24:25;1.90;;;1.63;;
21297;SDS011;10808;48.010;11.326;2022-07-29T05:26:51;1.80;;;1.70;;
21297;SDS011;10808;48.010;11.326;2022-07-29T05:29:17;2.40;;;1.70;;
21297;SDS011;10808;48.010;11.326;2022-07-29T05:31:43;2.60;;;1.65;;
21297;SDS011;10808;48.010;11.326;2022-07-29T05:34:09;2.50;;;1.80;;
21297;SDS011;10808;48.010;11.326;2022-07-29T05:36:35;1.98;;;1.58;;
21297;SDS011;10808;48.010;11.326;2022-07-29T05:39:01;1.63;;;1.40;;
21297;SDS011;10808;48.010;11.326;2022-07-29T05:41:27;2.58;;;1.58;;
21297;SDS011;10808;48.010;11.326;2022-07-29T05:43:56;2.17;;;1.40;;
21297;SDS011;10808;48.010;11.326;2022-07-29T05:46:23;1.60;;;1.50;;
21297;SDS011;10808;48.010;11.326;2022-07-29T05:48:49;1.67;;;1.58;;
21297;SDS011;10808;48.010;11.326;2022-07-29T05:51:15;2.30;;;1.70;;
21297;SDS011;10808;48.010;11.326;2022-07-29T05:53:41;2.55;;;1.38;;
21297;SDS011;10808;48.010;11.326;2022-07-29T05:56:08;1.40;;;1.30;;
21297;SDS011;10808;48.010;11.326;2022-07-29T05:58:34;1.85;;;1.60;;
21297;SDS011;10808;48.010;11.326;2022-07-29T06:01:00;1.50;;;1.40;;
21297;SDS011;10808;48.010;11.326;2022-07-29T06:03:26;1.45;;;1.35;;
21297;SDS011;10808;48.010;11.326;2022-07-29T06:05:52;1.77;;;1.50;;
21297;SDS011;10808;48.010;11.326;2022-07-29T06:08:18;2.05;;;1.50;;
21297;SDS011;10808;48.010;11.326;2022-07-29T06:10:45;1.70;;;1.40;;
21297;SDS011;10808;48.010;11.326;2022-07-29T06:13:11;1.50;;;1.40;;
21297;SDS011;10808;48.010;11.326;2022-07-29T06:15:38;2.60;;;1.30;;
21297;SDS011;10808;48.010;11.326;2022-07-29T06:18:04;2.28;;;1.48;;
21297;SDS011;10808;48.010;11.326;2022-07-29T06:20:34;1.50;;;1.40;;
21297;SDS011;10808;48.010;11.326;2022-07-29T06:23:00;1.45;;;1.33;;
21297;SDS011;10808;48.010;11.326;2022-07-29T06:25:27;1.60;;;1.50;;
21297;SDS011;10808;48.010;11.326;2022-07-29T06:28:00;1.40;;;1.30;;
21297;SDS011;10808;48.010;11.326;2022-07-29T06:30:26;1.63;;;1.48;;
21297;SDS011;10808;48.010;11.326;2022-07-29T06:32:54;1.50;;;1.40;;
21297;SDS011;10808;48.010;11.326;2022-07-29T06:35:20;1.50;;;1.40;;
21297;SDS011;10808;48.010;11.326;2022-07-29T06:37:47;1.50;;;1.40;;
21297;SDS011;10808;48.010;11.326;2022-07-29T06:40:13;3.00;;;1.40;;
21297;SDS011;10808;48.010;11.326;2022-07-29T06:42:57;1.63;;;1.35;;
21297;SDS011;10808;48.010;11.326;2022-07-29T06:45:23;1.35;;;1.23;;
21297;SDS011;10808;48.010;11.326;2022-07-29T06:47:49;1.42;;;1.33;;
21297;SDS011;10808;48.010;11.326;2022-07-29T06:50:15;1.75;;;1.38;;
21297;SDS011;10808;48.010;11.326;2022-07-29T06:52:42;1.60;;;1.50;;
21297;SDS011;10808;48.010;11.326;2022-07-29T06:55:08;1.70;;;1.50;;
21297;SDS011;10808;48.010;11.326;2022-07-29T06:57:34;2.92;;;1.63;;
21297;SDS011;10808;48.010;11.326;2022-07-29T07:00:00;2.60;;;1.45;;
21297;SDS011;10808;48.010;11.326;2022-07-29T07:02:26;2.50;;;1.55;;
21297;SDS011;10808;48.010;11.326;2022-07-29T07:04:52;3.70;;;1.70;;
21297;SDS011;10808;48.010;11.326;2022-07-29T07:07:18;1.60;;;1.50;;
21297;SDS011;10808;48.010;11.326;2022-07-29T07:09:44;2.30;;;1.40;;
21297;SDS011;10808;48.010;11.326;2022-07-29T07:12:10;1.45;;;1.35;;
21297;SDS011;10808;48.010;11.326;2022-07-29T07:14:36;1.40;;;1.30;;
21297;SDS011;10808;48.010;11.326;2022-07-29T07:17:02;2.28;;;1.48;;
21297;SDS011;10808;48.010;11.326;2022-07-29T07:19:29;1.70;;;1.45;;
21297;SDS011;10808;48.010;11.326;2022-07-29T07:21:55;1.60;;;1.30;;
21297;SDS011;10808;48.010;11.326;2022-07-29T07:24:21;2.70;;;1.40;;
21297;SDS011;10808;48.010;11.326;2022-07-29T07:26:47;2.00;;;1.30;;
21297;SDS011;10808;48.010;11.326;2022-07-29T07:29:13;1.52;;;1.40;;
21297;SDS011;10808;48.010;11.326;2022-07-29T07:31:39;2.17;;;1.30;;
21297;SDS011;10808;48.010;11.326;2022-07-29T07:34:05;1.55;;;1.33;;
21297;SDS011;10808;48.010;11.326;2022-07-29T07:36:32;2.40;;;1.30;;
21297;SDS011;10808;48.010;11.326;2022-07-29T07:38:58;2.00;;;1.38;;
21297;SDS011;10808;48.010;11.326;2022-07-29T07:41:24;1.30;;;1.20;;
21297;SDS011;10808;48.010;11.326;2022-07-29T07:43:50;1.58;;;1.40;;
21297;SDS011;10808;48.010;11.326;2022-07-29T07:46:16;1.70;;;1.30;;
21297;SDS011;10808;48.010;11.326;2022-07-29T07:48:42;1.50;;;1.35;;
21297;SDS011;10808;48.010;11.326;2022-07-29T07:51:08;1.95;;;1.42;;
21297;SDS011;10808;48.010;11.326;2022-07-29T07:53:34;1.53;;;1.37;;
21297;SDS011;10808;48.010;11.326;2022-07-29T07:56:00;2.95;;;1.33;;
21297;SDS011;10808;48.010;11.326;2022-07-29T07:58:26;4.00;;;1.45;;
21297;SDS011;10808;48.010;11.326;2022-07-29T08:00:52;3.70;;;1.40;;
21297;SDS011;10808;48.010;11.326;2022-07-29T08:03:18;1.80;;;1.58;;
21297;SDS011;10808;48.010;11.326;2022-07-29T08:05:44;1.67;;;1.57;;
21297;SDS011;10808;48.010;11.326;2022-07-29T08:08:11;1.90;;;1.70;;
21297;SDS011;10808;48.010;11.326;2022-07-29T08:10:37;1.75;;;1.65;;
21297;SDS011;10808;48.010;11.326;2022-07-29T08:13:21;1.70;;;1.60;;
21297;SDS011;10808;48.010;11.326;2022-07-29T08:15:49;1.88;;;1.65;;
21297;SDS011;10808;48.010;11.326;2022-07-29T08:18:36;4.40;;;2.00;;
21297;SDS011;10808;48.010;11.326;2022-07-29T08:21:03;3.00;;;1.80;;
21297;SDS011;10808;48.010;11.326;2022-07-29T08:23:30;3.15;;;2.13;;
21297;SDS011;10808;48.010;11.326;2022-07-29T08:26:05;2.92;;;2.05;;
21297;SDS011;10808;48.010;11.326;2022-07-29T08:28:39;2.70;;;1.95;;
21297;SDS011;10808;48.010;11.326;2022-07-29T08:31:06;8.52;;;1.98;;
21297;SDS011;10808;48.010;11.326;2022-07-29T08:33:32;1.95;;;1.80;;
21297;SDS011;10808;48.010;11.326;2022-07-29T08:35:59;1.97;;;1.80;;
21297;SDS011;10808;48.010;11.326;2022-07-29T08:38:25;2.73;;;2.13;;
21297;SDS011;10808;48.010;11.326;2022-07-29T08:40:52;2.30;;;2.10;;
21297;SDS011;10808;48.010;11.326;2022-07-29T08:43:18;3.00;;;1.90;;
21297;SDS011;10808;48.010;11.326;2022-07-29T08:45:45;2.80;;;1.92;;
21297;SDS011;10808;48.010;11.326;2022-07-29T08:48:20;2.45;;;2.00;;
21297;SDS011;10808;48.010;11.326;2022-07-29T08:50:48;2.17;;;1.95;;
21297;SDS011;10808;48.010;11.326;2022-07-29T08:53:19;2.28;;;2.08;;
21297;SDS011;10808;48.010;11.326;2022-07-29T08:55:48;1.90;;;1.80;;
21297;SDS011;10808;48.010;11.326;2022-07-29T08:58:15;2.10;;;1.80;;
21297;SDS011;10808;48.010;11.326;2022-07-29T09:00:43;1.98;;;1.70;;
21297;SDS011;10808;48.010;11.326;2022-07-29T09:03:12;3.65;;;2.10;;
21297;SDS011;10808;48.010;11.326;2022-07-29T09:05:42;2.70;;;2.05;;
21297;SDS011;10808;48.010;11.326;2022-07-29T09:08:10;4.32;;;2.38;;
21297;SDS011;10808;48.010;11.326;2022-07-29T09:10:37;3.45;;;2.30;;
21297;SDS011;10808;48.010;11.326;2022-07-29T09:13:03;2.33;;;2.03;;
21297;SDS011;10808;48.010;11.326;2022-07-29T09:15:29;2.90;;;2.40;;
21297;SDS011;10808;48.010;11.326;2022-07-29T09:17:55;3.97;;;2.20;;
21297;SDS011;10808;48.010;11.326;2022-07-29T09:20:23;4.03;;;2.20;;
21297;SDS011;10808;48.010;11.326;2022-07-29T09:22:50;2.60;;;1.92;;
21297;SDS011;10808;48.010;11.326;2022-07-29T09:25:31;4.10;;;2.15;;
21297;SDS011;10808;48.010;11.326;2022-07-29T09:28:05;3.00;;;2.00;;
21297;SDS011;10808;48.010;11.326;2022-07-29T09:30:51;3.45;;;2.17;;
21297;SDS011;10808;48.010;11.326;2022-07-29T09:33:22;2.70;;;2.25;;
21297;SDS011;10808;48.010;11.326;2022-07-29T09:36:05;2.42;;;2.22;;
21297;SDS011;10808;48.010;11.326;2022-07-29T09:38:32;4.25;;;2.35;;
21297;SDS011;10808;48.010;11.326;2022-07-29T09:41:00;3.20;;;2.47;;
21297;SDS011;10808;48.010;11.326;2022-07-29T09:43:27;2.37;;;2.17;;
21297;SDS011;10808;48.010;11.326;2022-07-29T09:45:53;2.60;;;2.27;;
21297;SDS011;10808;48.010;11.326;2022-07-29T09:48:23;2.83;;;2.42;;
21297;SDS011;10808;48.010;11.326;2022-07-29T09:50:50;4.87;;;2.60;;
21297;SDS011;10808;48.010;11.326;2022-07-29T09:53:34;3.35;;;2.70;;
21297;SDS011;10808;48.010;11.326;2022-07-29T09:56:02;2.85;;;2.55;;
21297;SDS011;10808;48.010;11.326;2022-07-29T09:58:29;4.13;;;2.40;;
21297;SDS011;10808;48.010;11.326;2022-07-29T10:00:55;4.75;;;2.75;;
21297;SDS011;10808;48.010;11.326;2022-07-29T10:03:22;4.82;;;2.20;;
21297;SDS011;10808;48.010;11.326;2022-07-29T10:06:04;2.70;;;2.47;;
21297;SDS011;10808;48.010;11.326;2022-07-29T10:08:30;3.83;;;2.80;;
21297;SDS011;10808;48.010;11.326;2022-07-29T10:11:10;2.85;;;2.65;;
21297;SDS011;10808;48.010;11.326;2022-07-29T10:13:41;3.03;;;2.72;;
21297;SDS011;10808;48.010;11.326;2022-07-29T10:16:09;3.35;;;2.70;;
21297;SDS011;10808;48.010;11.326;2022-07-29T10:18:39;3.08;;;2.78;;
21297;SDS011;10808;48.010;11.326;2022-07-29T10:21:06;3.00;;;2.70;;
21297;SDS011;10808;48.010;11.326;2022-07-29T10:23:33;4.57;;;2.95;;
21297;SDS011;10808;48.010;11.326;2022-07-29T10:26:00;6.32;;;3.10;;
21297;SDS011;10808;48.010;11.326;2022-07-29T10:28:28;5.20;;;2.97;;
21297;SDS011;10808;48.010;11.326;2022-07-29T10:30:58;4.05;;;3.00;;
21297;SDS011;10808;48.010;11.326;2022-07-29T10:33:33;4.05;;;2.92;;
21297;SDS011;10808;48.010;11.326;2022-07-29T10:36:21;3.22;;;2.92;;
21297;SDS011;10808;48.010;11.326;2022-07-29T10:39:17;3.20;;;2.87;;
21297;SDS011;10808;48.010;11.326;2022-07-29T10:42:13;5.63;;;3.00;;
21297;SDS011;10808;48.010;11.326;2022-07-29T10:44:41;6.38;;;3.20;;
21297;SDS011;10808;48.010;11.326;2022-07-29T10:47:08;3.73;;;2.77;;
21297;SDS011;10808;48.010;11.326;2022-07-29T10:49:55;5.05;;;3.08;;
21297;SDS011;10808;48.010;11.326;2022-07-29T10:52:33;4.18;;;2.72;;
21297;SDS011;10808;48.010;11.326;2022-07-29T10:58:13;2.92;;;2.70;;
21297;SDS011;10808;48.010;11.326;2022-07-29T11:00:45;4.22;;;2.75;;
21297;SDS011;10808;48.010;11.326;2022-07-29T11:06:14;3.17;;;2.78;;
21297;SDS011;10808;48.010;11.326;2022-07-29T11:08:40;6.05;;;3.00;;
21297;SDS011;10808;48.010;11.326;2022-07-29T11:13:51;2.97;;;2.67;;
21297;SDS011;10808;48.010;11.326;2022-07-29T11:16:21;4.88;;;2.63;;
21297;SDS011;10808;48.010;11.326;2022-07-29T11:21:35;4.35;;;2.60;;
21297;SDS011;10808;48.010;11.326;2022-07-29T11:27:18;3.63;;;2.50;;
21297;SDS011;10808;48.010;11.326;2022-07-29T11:29:53;3.80;;;2.58;;
21297;SDS011;10808;48.010;11.326;2022-07-29T11:32:22;2.83;;;2.53;;
21297;SDS011;10808;48.010;11.326;2022-07-29T11:34:49;3.77;;;2.70;;
21297;SDS011;10808;48.010;11.326;2022-07-29T11:37:36;3.95;;;2.90;;
21297;SDS011;10808;48.010;11.326;2022-07-29T11:45:17;2.92;;;2.60;;
21297;SDS011;10808;48.010;11.326;2022-07-29T11:50:15;3.90;;;2.70;;
21297;SDS011;10808;48.010;11.326;2022-07-29T11:53:11;2.70;;;2.50;;
21297;SDS011;10808;48.010;11.326;2022-07-29T11:55:39;3.92;;;2.63;;
21297;SDS011;10808;48.010;11.326;2022-07-29T11:58:05;3.25;;;2.70;;
21297;SDS011;10808;48.010;11.326;2022-07-29T12:00:33;3.85;;;2.60;;
21297;SDS011;10808;48.010;11.326;2022-07-29T12:03:04;3.78;;;2.60;;
21297;SDS011;10808;48.010;11.326;2022-07-29T12:08:08;4.55;;;3.20;;
21297;SDS011;10808;48.010;11.326;2022-07-29T12:10:34;2.95;;;2.75;;
21297;SDS011;10808;48.010;11.326;2022-07-29T12:13:01;4.07;;;2.33;;
21297;SDS011;10808;48.010;11.326;2022-07-29T12:15:27;3.83;;;2.60;;
21297;SDS011;10808;48.010;11.326;2022-07-29T12:17:53;3.53;;;2.40;;
21297;SDS011;10808;48.010;11.326;2022-07-29T12:20:27;5.13;;;2.47;;
21297;SDS011;10808;48.010;11.326;2022-07-29T12:22:55;2.85;;;2.38;;
21297;SDS011;10808;48.010;11.326;2022-07-29T12:25:22;3.25;;;2.70;;
21297;SDS011;10808;48.010;11.326;2022-07-29T12:27:59;4.05;;;2.60;;
21297;SDS011;10808;48.010;11.326;2022-07-29T12:30:36;3.50;;;2.53;;
21297;SDS011;10808;48.010;11.326;2022-07-29T12:33:27;2.95;;;2.55;;
21297;SDS011;10808;48.010;11.326;2022-07-29T12:35:59;2.80;;;2.60;;
21297;SDS011;10808;48.010;11.326;2022-07-29T12:38:26;4.22;;;2.70;;
21297;SDS011;10808;48.010;11.326;2022-07-29T12:40:53;4.95;;;2.58;;
21297;SDS011;10808;48.010;11.326;2022-07-29T12:43:21;3.80;;;2.80;;
21297;SDS011;10808;48.010;11.326;2022-07-29T12:45:48;6.05;;;2.70;;
21297;SDS011;10808;48.010;11.326;2022-07-29T12:48:16;3.97;;;2.50;;
21297;SDS011;10808;48.010;11.326;2022-07-29T12:50:53;4.55;;;3.00;;
21297;SDS011;10808;48.010;11.326;2022-07-29T12:53:20;3.70;;;2.72;;
21297;SDS011;10808;48.010;11.326;2022-07-29T12:55:47;3.20;;;2.65;;
21297;SDS011;10808;48.010;11.326;2022-07-29T13:01:13;3.87;;;3.00;;
21297;SDS011;10808;48.010;11.326;2022-07-29T13:03:45;4.00;;;3.00;;
21297;SDS011;10808;48.010;11.326;2022-07-29T13:06:31;4.80;;;2.85;;
21297;SDS011;10808;48.010;11.326;2022-07-29T13:11:38;3.08;;;2.78;;
21297;SDS011;10808;48.010;11.326;2022-07-29T13:14:05;5.13;;;2.80;;
21297;SDS011;10808;48.010;11.326;2022-07-29T13:16:34;4.38;;;2.70;;
21297;SDS011;10808;48.010;11.326;2022-07-29T13:19:04;3.60;;;2.70;;
21297;SDS011;10808;48.010;11.326;2022-07-29T13:21:31;5.05;;;2.97;;
21297;SDS011;10808;48.010;11.326;2022-07-29T13:23:57;4.20;;;3.10;;
21297;SDS011;10808;48.010;11.326;2022-07-29T13:26:23;3.47;;;2.50;;
21297;SDS011;10808;48.010;11.326;2022-07-29T13:28:49;3.45;;;2.63;;
21297;SDS011;10808;48.010;11.326;2022-07-29T13:31:15;3.58;;;3.00;;
21297;SDS011;10808;48.010;11.326;2022-07-29T13:33:41;3.38;;;2.95;;
21297;SDS011;10808;48.010;11.326;2022-07-29T13:36:07;2.83;;;2.63;;
21297;SDS011;10808;48.010;11.326;2022-07-29T13:38:33;2.83;;;2.63;;
21297;SDS011;10808;48.010;11.326;2022-07-29T13:41:00;2.60;;;2.40;;
21297;SDS011;10808;48.010;11.326;2022-07-29T13:43:26;4.60;;;2.20;;
21297;SDS011;10808;48.010;11.326;2022-07-29T13:45:52;2.90;;;2.08;;
21297;SDS011;10808;48.010;11.326;2022-07-29T13:48:18;2.73;;;2.03;;
21297;SDS011;10808;48.010;11.326;2022-07-29T13:50:44;4.10;;;2.30;;
21297;SDS011;10808;48.010;11.326;2022-07-29T13:53:11;2.50;;;2.30;;
21297;SDS011;10808;48.010;11.326;2022-07-29T13:55:37;2.97;;;2.30;;
21297;SDS011;10808;48.010;11.326;2022-07-29T13:58:03;2.55;;;2.20;;
21297;SDS011;10808;48.010;11.326;2022-07-29T14:00:29;2.60;;;2.30;;
21297;SDS011;10808;48.010;11.326;2022-07-29T14:02:55;2.30;;;2.10;;
21297;SDS011;10808;48.010;11.326;2022-07-29T14:05:21;4.20;;;2.03;;
21297;SDS011;10808;48.010;11.326;2022-07-29T14:07:47;2.90;;;2.23;;
21297;SDS011;10808;48.010;11.326;2022-07-29T14:10:13;2.33;;;2.13;;
21297;SDS011;10808;48.010;11.326;2022-07-29T14:12:39;2.63;;;2.30;;
21297;SDS011;10808;48.010;11.326;2022-07-29T14:15:07;4.03;;;2.25;;
21297;SDS011;10808;48.010;11.326;2022-07-29T14:17:34;2.43;;;2.10;;
21297;SDS011;10808;48.010;11.326;2022-07-29T14:20:00;2.53;;;2.20;;
21297;SDS011;10808;48.010;11.326;2022-07-29T14:22:26;3.30;;;2.50;;
21297;SDS011;10808;48.010;11.326;2022-07-29T14:24:52;3.05;;;2.40;;
21297;SDS011;10808;48.010;11.326;2022-07-29T14:27:18;4.22;;;2.50;;
21297;SDS011;10808;48.010;11.326;2022-07-29T14:29:44;2.67;;;2.20;;
21297;SDS011;10808;48.010;11.326;2022-07-29T14:32:10;3.10;;;2.33;;
21297;SDS011;10808;48.010;11.326;2022-07-29T14:34:37;2.50;;;2.30;;
21297;SDS011;10808;48.010;11.326;2022-07-29T14:37:03;5.10;;;2.20;;
21297;SDS011;10808;48.010;11.326;2022-07-29T14:39:31;3.53;;;2.30;;
21297;SDS011;10808;48.010;11.326;2022-07-29T14:41:57;2.40;;;2.20;;
21297;SDS011;10808;48.010;11.326;2022-07-29T14:44:23;3.60;;;2.50;;
21297;SDS011;10808;48.010;11.326;2022-07-29T14:46:49;3.25;;;2.40;;
21297;SDS011;10808;48.010;11.326;2022-07-29T14:49:15;2.70;;;2.50;;
21297;SDS011;10808;48.010;11.326;2022-07-29T14:51:41;3.00;;;2.67;;
21297;SDS011;10808;48.010;11.326;2022-07-29T14:54:07;3.85;;;2.50;;
21297;SDS011;10808;48.010;11.326;2022-07-29T14:56:33;2.55;;;2.35;;
21297;SDS011;10808;48.010;11.326;2022-07-29T14:59:00;3.00;;;2.80;;
21297;SDS011;10808;48.010;11.326;2022-07-29T15:01:26;4.70;;;2.53;;
21297;SDS011;10808;48.010;11.326;2022-07-29T15:03:52;2.92;;;2.60;;
21297;SDS011;10808;48.010;11.326;2022-07-29T15:06:18;4.03;;;2.40;;
21297;SDS011;10808;48.010;11.326;2022-07-29T15:08:44;3.13;;;2.60;;
21297;SDS011;10808;48.010;11.326;2022-07-29T15:11:10;2.70;;;2.50;;
21297;SDS011;10808;48.010;11.326;2022-07-29T15:13:36;2.90;;;2.60;;
21297;SDS011;10808;48.010;11.326;2022-07-29T15:16:02;5.22;;;3.17;;
21297;SDS011;10808;48.010;11.326;2022-07-29T15:18:30;3.72;;;2.90;;
21297;SDS011;10808;48.010;11.326;2022-07-29T15:20:56;4.37;;;3.10;;
21297;SDS011;10808;48.010;11.326;2022-07-29T15:23:22;3.30;;;3.00;;